Flugplatz Finsterwalde/Heinrichsruh

Für EDAS sind keine METAR/TAF Berichte vorhanden.
Es werden die Flugwettermeldungen vom Flugplatz Holzdorf Airport in 37 km Entfernung angezeigt.

Bericht für ETSH

vom 23.08. um 13:20 UTC

Wind 4 kt aus 80°

Sichtweite 10 km oder mehr

gering bewölkt in 30000 ft

Temperatur 28.0°C

Taupunkt 9.0°C

Luftfeuchtigkeit 30%

Luftdruck 1025 hPa

ETSH 231320Z 08004KT 9999 FEW300 28/09 Q1025 BLU+

Prognose für ETSH

vom 23.08. um 00:00 UTC

Zwischen 00:00 UTC und 00:00 UTC

Wind 5 kt aus 120°

Sichtweite 10 km oder mehr

keine signifikanten Wettererscheinungen

gering bewölkt in 28000 ft

TAF AMD ETSH 231000Z 2308/2317 12005KT 9999 NSW FEW280 CANCEL 1000 BY ETGL
Impressum